Time;durP1;ratioP1;P1;durP2;ratioP2;P2;SDS_P1;SDS_P2;PMS_P1;PMS_P2;Temp;Humidity;BMP_temperature;BMP_pressure;BME280_temperature;BME280_humidity;BME280_pressure;Samples;Min_cycle;Max_cycle;Signal;HPM_P1;HPM_P2
2023/03/24 00:01:18;;;;;;;0.57;0.57;;;;;;;;;;7427550;19;20169;-91
2023/03/24 00:03:47;;;;;;;0.60;0.60;;;;;;;;;;7431215;19;20164;-92
2023/03/24 00:06:14;;;;;;;0.40;0.40;;;;;;;;;;7434105;19;20150;-91
2023/03/24 00:08:42;;;;;;;0.80;0.80;;;;;;;;;;7432541;19;20147;-91
2023/03/24 00:11:10;;;;;;;1.20;0.60;;;;;;;;;;7414354;19;20196;-90
2023/03/24 00:13:38;;;;;;;0.97;0.90;;;;;;;;;;7402067;19;20155;-90
2023/03/24 00:16:09;;;;;;;0.67;0.67;;;;;;;;;;7404163;19;20168;-91
2023/03/24 00:18:38;;;;;;;3.60;1.43;;;;;;;;;;7403729;19;20169;-90
2023/03/24 00:21:06;;;;;;;0.63;0.63;;;;;;;;;;7404426;19;20597;-91
2023/03/24 00:23:33;;;;;;;0.80;0.63;;;;;;;;;;7403638;19;20814;-90
2023/03/24 00:26:01;;;;;;;0.50;0.50;;;;;;;;;;7407982;19;20152;-90
2023/03/24 00:28:32;;;;;;;0.77;0.77;;;;;;;;;;7423962;19;20473;-91
2023/03/24 00:31:00;;;;;;;0.40;0.40;;;;;;;;;;7427355;19;20137;-91
2023/03/24 00:33:33;;;;;;;1.00;1.00;;;;;;;;;;7429825;19;20136;-91
2023/03/24 00:36:05;;;;;;;1.17;1.07;;;;;;;;;;7419575;19;20132;-91
2023/03/24 00:38:33;;;;;;;0.57;0.57;;;;;;;;;;7394492;19;20176;-91
2023/03/24 00:41:00;;;;;;;0.80;0.80;;;;;;;;;;7389782;19;20477;-90
2023/03/24 00:43:28;;;;;;;0.53;0.50;;;;;;;;;;7391956;19;20141;-89
2023/03/24 00:46:00;;;;;;;0.60;0.60;;;;;;;;;;7389922;19;20141;-90
2023/03/24 00:48:28;;;;;;;0.60;0.50;;;;;;;;;;7394707;19;20155;-89
2023/03/24 00:50:55;;;;;;;0.40;0.40;;;;;;;;;;7395595;19;20504;-89
2023/03/24 00:53:24;;;;;;;4.20;0.77;;;;;;;;;;7394764;19;20160;-90
2023/03/24 00:55:51;;;;;;;0.40;0.40;;;;;;;;;;7397927;19;20706;-88
2023/03/24 00:58:18;;;;;;;0.30;0.30;;;;;;;;;;7395091;19;20173;-90
2023/03/24 01:00:46;;;;;;;0.70;0.70;;;;;;;;;;7401608;19;20149;-89
2023/03/24 01:03:14;;;;;;;14.30;1.23;;;;;;;;;;7399794;19;20137;-90
2023/03/24 01:05:46;;;;;;;0.40;0.40;;;;;;;;;;7400194;19;20172;-90
2023/03/24 01:08:15;;;;;;;0.60;0.60;;;;;;;;;;7396041;19;20186;-91
2023/03/24 01:10:49;;;;;;;0.40;0.40;;;;;;;;;;7394792;19;20137;-90
2023/03/24 01:13:16;;;;;;;0.50;0.50;;;;;;;;;;7393366;19;20137;-90
2023/03/24 01:15:46;;;;;;;0.90;0.90;;;;;;;;;;7391207;19;20145;-89
2023/03/24 01:18:13;;;;;;;2.33;0.97;;;;;;;;;;7394355;19;20176;-91
2023/03/24 01:20:44;;;;;;;1.13;1.03;;;;;;;;;;7393308;19;20156;-90
2023/03/24 01:23:13;;;;;;;0.40;0.40;;;;;;;;;;7395351;19;20155;-89
2023/03/24 01:25:44;;;;;;;0.77;0.77;;;;;;;;;;7397285;19;20485;-90
2023/03/24 01:28:11;;;;;;;0.63;0.63;;;;;;;;;;7393435;19;20196;-88
2023/03/24 01:30:38;;;;;;;0.30;0.30;;;;;;;;;;7396008;19;20148;-90
2023/03/24 01:33:05;;;;;;;0.50;0.50;;;;;;;;;;7394449;19;20145;-91
2023/03/24 01:35:33;;;;;;;0.47;0.47;;;;;;;;;;7397307;19;20129;-90
2023/03/24 01:37:59;;;;;;;0.50;0.50;;;;;;;;;;7386544;19;20135;-90
2023/03/24 01:40:29;;;;;;;0.50;0.50;;;;;;;;;;7390851;19;20160;-88
2023/03/24 01:42:57;;;;;;;3.23;0.93;;;;;;;;;;7391424;19;20160;-88
2023/03/24 01:45:42;;;;;;;0.67;0.60;;;;;;;;;;7394296;19;20144;-90
2023/03/24 01:48:18;;;;;;;0.30;0.30;;;;;;;;;;7386231;19;20149;-90
2023/03/24 01:50:51;;;;;;;0.37;0.37;;;;;;;;;;7390673;19;20164;-90
2023/03/24 01:53:19;;;;;;;0.50;0.50;;;;;;;;;;7391127;19;20133;-89
2023/03/24 01:55:47;;;;;;;0.50;0.50;;;;;;;;;;7391873;19;20133;-90
2023/03/24 01:58:13;;;;;;;0.73;0.73;;;;;;;;;;7389572;19;20172;-90
2023/03/24 02:00:40;;;;;;;0.50;0.50;;;;;;;;;;7393423;19;20137;-89
2023/03/24 02:03:13;;;;;;;0.57;0.57;;;;;;;;;;7389704;19;20617;-89
2023/03/24 02:05:44;;;;;;;0.40;0.40;;;;;;;;;;7396541;19;20164;-89
2023/03/24 02:08:17;;;;;;;0.70;0.70;;;;;;;;;;7392793;19;20184;-89
2023/03/24 02:10:44;;;;;;;0.43;0.43;;;;;;;;;;7391291;19;20129;-90
2023/03/24 02:13:12;;;;;;;0.73;0.63;;;;;;;;;;7394716;19;20137;-91
2023/03/24 02:16:12;;;;;;;0.63;0.63;;;;;;;;;;7395057;19;20125;-90
2023/03/24 02:18:54;;;;;;;1.30;1.03;;;;;;;;;;7389480;19;20231;-89
2023/03/24 02:21:48;;;;;;;0.43;0.43;;;;;;;;;;7390359;19;20137;-88
2023/03/24 02:24:41;;;;;;;0.40;0.40;;;;;;;;;;7389730;19;20629;-89
2023/03/24 02:27:16;;;;;;;0.40;0.40;;;;;;;;;;7394199;19;20148;-89
2023/03/24 02:30:04;;;;;;;0.30;0.30;;;;;;;;;;7394583;19;20165;-89
2023/03/24 02:32:58;;;;;;;0.40;0.40;;;;;;;;;;7395979;19;20707;-89
2023/03/24 02:35:40;;;;;;;0.50;0.50;;;;;;;;;;7390524;19;20148;-89
2023/03/24 02:38:13;;;;;;;0.40;0.40;;;;;;;;;;7392874;19;20176;-90
2023/03/24 02:41:00;;;;;;;0.37;0.37;;;;;;;;;;7391252;19;20133;-90
2023/03/24 02:43:32;;;;;;;0.60;0.60;;;;;;;;;;7394037;19;20153;-90
2023/03/24 02:46:24;;;;;;;0.40;0.40;;;;;;;;;;7393189;19;20154;-91
2023/03/24 02:48:59;;;;;;;0.93;0.63;;;;;;;;;;7391100;19;20172;-89
2023/03/24 02:51:44;;;;;;;0.60;0.60;;;;;;;;;;7392977;19;20635;-90
2023/03/24 02:54:19;;;;;;;1.33;0.83;;;;;;;;;;7389532;19;20158;-89
2023/03/24 02:56:56;;;;;;;0.50;0.50;;;;;;;;;;7391309;19;20148;-90
2023/03/24 02:59:33;;;;;;;1.27;1.03;;;;;;;;;;7391502;19;21131;-88
2023/03/24 03:02:15;;;;;;;0.30;0.30;;;;;;;;;;7391583;19;20156;-89
2023/03/24 03:04:48;;;;;;;0.47;0.47;;;;;;;;;;7396016;19;20144;-88
2023/03/24 03:07:20;;;;;;;0.50;0.50;;;;;;;;;;7392436;19;20136;-90
2023/03/24 03:10:23;;;;;;;0.80;0.70;;;;;;;;;;7389574;19;20176;-90
2023/03/24 03:12:54;;;;;;;0.40;0.40;;;;;;;;;;7388912;19;20129;-90
2023/03/24 03:15:23;;;;;;;0.60;0.60;;;;;;;;;;7392284;19;20468;-91
2023/03/24 12:35:39;;;;;;;0.30;0.30;;;;;;;;;;7438693;19;20149;-96
2023/03/24 12:42:09;;;;;;;0.40;0.40;;;;;;;;;;7436817;19;20121;-96
2023/03/24 12:49:05;;;;;;;0.30;0.30;;;;;;;;;;7428077;19;20109;-96
2023/03/24 12:57:24;;;;;;;0.30;0.30;;;;;;;;;;7425352;19;20192;-97
2023/03/24 14:19:57;;;;;;;0.30;0.30;;;;;;;;;;7429961;19;20165;-96
2023/03/24 14:22:29;;;;;;;0.30;0.30;;;;;;;;;;7426616;19;20212;-96
2023/03/24 14:24:59;;;;;;;0.33;0.33;;;;;;;;;;7430245;19;20141;-96
2023/03/24 14:27:42;;;;;;;0.33;0.33;;;;;;;;;;7429716;19;20140;-96
2023/03/24 14:30:19;;;;;;;0.30;0.30;;;;;;;;;;7427300;19;20165;-95
2023/03/24 14:32:49;;;;;;;0.33;0.33;;;;;;;;;;7427587;19;20152;-96
2023/03/24 14:35:44;;;;;;;0.30;0.30;;;;;;;;;;7425296;19;20140;-96
2023/03/24 14:38:22;;;;;;;0.30;0.30;;;;;;;;;;7427455;19;20242;-96
2023/03/24 14:40:59;;;;;;;0.30;0.30;;;;;;;;;;7425523;19;20140;-96
2023/03/24 14:43:55;;;;;;;0.30;0.30;;;;;;;;;;7420821;19;20173;-96
2023/03/24 14:46:32;;;;;;;0.30;0.30;;;;;;;;;;7426260;19;20144;-95
2023/03/24 14:49:13;;;;;;;0.30;0.30;;;;;;;;;;7422368;19;20125;-95
2023/03/24 14:51:42;;;;;;;0.43;0.43;;;;;;;;;;7427861;19;20149;-96
2023/03/24 14:54:17;;;;;;;0.30;0.30;;;;;;;;;;7425383;19;20129;-96
2023/03/24 14:56:48;;;;;;;0.33;0.33;;;;;;;;;;7425066;19;20131;-96
2023/03/24 14:59:46;;;;;;;0.37;0.37;;;;;;;;;;7420342;19;20144;-96
2023/03/24 15:02:22;;;;;;;0.30;0.30;;;;;;;;;;7424025;19;20201;-96
2023/03/24 15:05:30;;;;;;;0.50;0.50;;;;;;;;;;7429533;19;20140;-95
2023/03/24 15:08:11;;;;;;;0.40;0.40;;;;;;;;;;7424838;19;20144;-96
2023/03/24 15:10:46;;;;;;;0.50;0.50;;;;;;;;;;7425074;19;20121;-96
2023/03/24 15:13:33;;;;;;;0.33;0.33;;;;;;;;;;7424301;19;20168;-94
2023/03/24 15:16:05;;;;;;;0.50;0.50;;;;;;;;;;7429650;19;20133;-95
2023/03/24 15:18:33;;;;;;;0.30;0.30;;;;;;;;;;7413843;19;20421;-95
2023/03/24 15:20:59;;;;;;;0.30;0.30;;;;;;;;;;7423481;19;20136;-96
2023/03/24 15:23:27;;;;;;;0.30;0.30;;;;;;;;;;7418810;19;20170;-96
2023/03/24 15:25:54;;;;;;;0.83;0.63;;;;;;;;;;7427003;19;20129;-95
2023/03/24 15:28:27;;;;;;;0.20;0.20;;;;;;;;;;7421640;19;20173;-95
2023/03/24 15:30:57;;;;;;;0.37;0.37;;;;;;;;;;7416853;19;20149;-95
2023/03/24 15:33:25;;;;;;;0.40;0.40;;;;;;;;;;7418314;19;20149;-95
2023/03/24 15:35:55;;;;;;;0.30;0.30;;;;;;;;;;7426894;19;20140;-96
2023/03/24 15:38:31;;;;;;;0.30;0.30;;;;;;;;;;7424192;19;20137;-96
2023/03/24 15:41:06;;;;;;;0.30;0.30;;;;;;;;;;7428481;19;20148;-95
2023/03/24 15:43:40;;;;;;;0.60;0.60;;;;;;;;;;7427152;19;20439;-95
2023/03/24 15:46:22;;;;;;;0.30;0.30;;;;;;;;;;7430540;19;20140;-95
2023/03/24 15:48:49;;;;;;;0.30;0.30;;;;;;;;;;7419053;19;20138;-96
2023/03/24 15:51:16;;;;;;;0.23;0.23;;;;;;;;;;7424004;19;20137;-96
2023/03/24 15:53:56;;;;;;;0.33;0.33;;;;;;;;;;7429502;19;20250;-96
2023/03/24 15:56:27;;;;;;;0.30;0.30;;;;;;;;;;7416276;19;20125;-95
2023/03/24 15:58:56;;;;;;;0.30;0.30;;;;;;;;;;7418574;19;20136;-96
2023/03/24 16:01:34;;;;;;;0.40;0.40;;;;;;;;;;7409598;19;20176;-95
2023/03/24 16:04:06;;;;;;;0.30;0.30;;;;;;;;;;7412999;19;20153;-96
2023/03/24 16:06:34;;;;;;;0.40;0.40;;;;;;;;;;7428096;19;20133;-96
2023/03/24 16:09:12;;;;;;;0.30;0.30;;;;;;;;;;7424213;19;21502;-95
2023/03/24 16:11:40;;;;;;;0.20;0.20;;;;;;;;;;7426270;19;20147;-95
2023/03/24 16:14:23;;;;;;;0.23;0.23;;;;;;;;;;7422957;19;20141;-96
2023/03/24 16:16:55;;;;;;;0.30;0.30;;;;;;;;;;7421751;19;20137;-96
2023/03/24 16:19:23;;;;;;;0.43;0.43;;;;;;;;;;7422740;19;20141;-95
2023/03/24 16:21:49;;;;;;;0.30;0.30;;;;;;;;;;7424445;19;20157;-95
2023/03/24 16:24:16;;;;;;;0.40;0.40;;;;;;;;;;7425830;19;20133;-96
2023/03/24 16:26:43;;;;;;;0.47;0.47;;;;;;;;;;7418110;19;20157;-93
2023/03/24 16:29:14;;;;;;;0.40;0.40;;;;;;;;;;7422817;19;20800;-95
2023/03/24 16:31:41;;;;;;;0.40;0.40;;;;;;;;;;7422343;19;20154;-96
2023/03/24 16:34:08;;;;;;;0.50;0.50;;;;;;;;;;7415571;19;20162;-96
2023/03/24 16:36:35;;;;;;;0.47;0.47;;;;;;;;;;7420860;19;20136;-95
2023/03/24 16:39:02;;;;;;;0.33;0.33;;;;;;;;;;7412474;19;20133;-96
2023/03/24 16:41:29;;;;;;;0.30;0.30;;;;;;;;;;7417330;19;20148;-95
2023/03/24 16:43:56;;;;;;;0.30;0.30;;;;;;;;;;7421573;19;20164;-95
2023/03/24 16:46:25;;;;;;;0.30;0.30;;;;;;;;;;7416210;19;20130;-96
2023/03/24 16:48:53;;;;;;;0.50;0.47;;;;;;;;;;7420563;19;20161;-95
2023/03/24 16:51:20;;;;;;;0.50;0.50;;;;;;;;;;7426339;19;20147;-95
2023/03/24 16:53:47;;;;;;;0.67;0.67;;;;;;;;;;7422624;19;20133;-94
2023/03/24 16:56:16;;;;;;;0.77;0.77;;;;;;;;;;7415478;19;20142;-96
2023/03/24 16:58:46;;;;;;;0.30;0.30;;;;;;;;;;7421368;19;20129;-96
2023/03/24 17:01:27;;;;;;;0.30;0.30;;;;;;;;;;7416769;19;20125;-96
2023/03/24 17:03:57;;;;;;;0.37;0.37;;;;;;;;;;7420163;19;20164;-96
2023/03/24 17:06:25;;;;;;;0.50;0.50;;;;;;;;;;7402011;19;20245;-96
2023/03/24 17:08:54;;;;;;;0.33;0.33;;;;;;;;;;7422809;19;20125;-96
2023/03/24 17:11:29;;;;;;;0.30;0.30;;;;;;;;;;7416989;19;20125;-96
2023/03/24 17:14:00;;;;;;;0.40;0.40;;;;;;;;;;7419245;19;20168;-96
2023/03/24 17:42:11;;;;;;;0.30;0.30;;;;;;;;;;7448080;19;20157;-96
2023/03/24 17:44:38;;;;;;;0.30;0.30;;;;;;;;;;7452570;19;20140;-95
2023/03/24 18:03:07;;;;;;;0.20;0.20;;;;;;;;;;7429169;19;20154;-92
2023/03/24 18:09:26;;;;;;;0.20;0.20;;;;;;;;;;7428104;19;20128;-94
2023/03/24 18:11:53;;;;;;;0.30;0.30;;;;;;;;;;7430110;19;20204;-93
2023/03/24 18:14:19;;;;;;;0.50;0.50;;;;;;;;;;7433481;19;20136;-94
2023/03/24 18:16:46;;;;;;;0.20;0.20;;;;;;;;;;7430694;19;20605;-92
2023/03/24 18:19:13;;;;;;;0.20;0.20;;;;;;;;;;7430864;19;20235;-93
2023/03/24 18:21:43;;;;;;;0.40;0.40;;;;;;;;;;7430172;19;20147;-93
2023/03/24 18:24:10;;;;;;;0.50;0.50;;;;;;;;;;7433957;19;20146;-92
2023/03/24 18:26:46;;;;;;;0.30;0.30;;;;;;;;;;7434641;19;20144;-94
2023/03/24 18:29:26;;;;;;;0.20;0.20;;;;;;;;;;7431694;19;20164;-91
2023/03/24 18:32:01;;;;;;;0.20;0.20;;;;;;;;;;7433753;19;20728;-92
2023/03/24 18:34:37;;;;;;;0.30;0.30;;;;;;;;;;7424755;19;20641;-93
2023/03/24 18:37:04;;;;;;;0.30;0.30;;;;;;;;;;7423753;19;20173;-94
2023/03/24 18:39:31;;;;;;;0.30;0.30;;;;;;;;;;7399399;19;20165;-93
2023/03/24 18:41:58;;;;;;;2.57;0.53;;;;;;;;;;7394982;19;20149;-93
2023/03/24 18:44:32;;;;;;;0.30;0.30;;;;;;;;;;7395494;19;20141;-92
2023/03/24 18:47:13;;;;;;;0.30;0.30;;;;;;;;;;7393381;19;20148;-94
2023/03/24 18:49:45;;;;;;;0.37;0.37;;;;;;;;;;7390213;19;20153;-94
2023/03/24 18:52:16;;;;;;;0.30;0.30;;;;;;;;;;7412122;19;20636;-94
2023/03/24 18:54:44;;;;;;;0.30;0.30;;;;;;;;;;7416599;19;20156;-95
2023/03/24 18:57:11;;;;;;;0.50;0.43;;;;;;;;;;7412214;19;20145;-94
2023/03/24 18:59:38;;;;;;;0.30;0.30;;;;;;;;;;7417474;19;20752;-94
2023/03/24 19:02:04;;;;;;;0.30;0.30;;;;;;;;;;7415113;19;20151;-94
2023/03/24 19:04:31;;;;;;;0.30;0.30;;;;;;;;;;7419860;19;20141;-94
2023/03/24 19:06:59;;;;;;;0.30;0.30;;;;;;;;;;7426154;19;20157;-93
2023/03/24 19:09:27;;;;;;;0.30;0.30;;;;;;;;;;7422885;19;20163;-94
2023/03/24 19:11:54;;;;;;;0.30;0.30;;;;;;;;;;7423261;19;20137;-96
2023/03/24 19:14:21;;;;;;;0.30;0.30;;;;;;;;;;7423661;19;20137;-94
2023/03/24 19:16:48;;;;;;;0.30;0.30;;;;;;;;;;7424555;19;20137;-93
2023/03/24 19:19:26;;;;;;;0.30;0.30;;;;;;;;;;7423669;19;20149;-94
2023/03/24 19:22:00;;;;;;;0.30;0.30;;;;;;;;;;7401552;19;20149;-91
2023/03/24 19:24:27;;;;;;;0.20;0.20;;;;;;;;;;7399067;19;20141;-90
2023/03/24 19:27:03;;;;;;;0.20;0.20;;;;;;;;;;7399067;19;20141;-86
2023/03/24 19:29:42;;;;;;;0.30;0.30;;;;;;;;;;7400703;19;20173;-87
2023/03/24 19:32:09;;;;;;;0.20;0.20;;;;;;;;;;7402180;19;20208;-89
2023/03/24 19:34:37;;;;;;;0.40;0.40;;;;;;;;;;7396770;19;20141;-88
2023/03/24 19:37:12;;;;;;;0.27;0.27;;;;;;;;;;7398397;19;20147;-89
2023/03/24 19:39:51;;;;;;;0.30;0.30;;;;;;;;;;7393302;19;20153;-91
2023/03/24 19:42:30;;;;;;;0.30;0.30;;;;;;;;;;7392350;19;20216;-92
2023/03/24 19:44:58;;;;;;;0.30;0.30;;;;;;;;;;7393426;19;20140;-93
2023/03/24 19:47:25;;;;;;;0.30;0.30;;;;;;;;;;7397207;19;20132;-94
2023/03/24 19:49:55;;;;;;;0.30;0.30;;;;;;;;;;7395908;19;20168;-93
2023/03/24 19:52:25;;;;;;;0.20;0.20;;;;;;;;;;7392166;19;20165;-93
2023/03/24 19:54:57;;;;;;;0.53;0.53;;;;;;;;;;7392677;19;20595;-93
2023/03/24 19:58:03;;;;;;;0.30;0.30;;;;;;;;;;7398563;19;20598;-94
2023/03/24 20:01:22;;;;;;;0.40;0.40;;;;;;;;;;7405811;19;20133;-94
2023/03/24 20:04:15;;;;;;;0.30;0.30;;;;;;;;;;7399519;19;20157;-93
2023/03/24 20:06:43;;;;;;;0.50;0.50;;;;;;;;;;7418098;19;20148;-94
2023/03/24 20:09:11;;;;;;;0.30;0.30;;;;;;;;;;7427574;19;20161;-93
2023/03/24 20:11:38;;;;;;;0.30;0.30;;;;;;;;;;7429135;19;20176;-93
2023/03/24 20:14:06;;;;;;;0.20;0.20;;;;;;;;;;7427667;19;20157;-95
2023/03/24 20:16:33;;;;;;;0.20;0.20;;;;;;;;;;7427361;19;20158;-93
2023/03/24 20:19:00;;;;;;;0.20;0.20;;;;;;;;;;7427595;19;20160;-94
2023/03/24 20:21:27;;;;;;;0.30;0.30;;;;;;;;;;7426742;19;20149;-92
2023/03/24 20:23:54;;;;;;;0.30;0.30;;;;;;;;;;7427963;19;20153;-93
2023/03/24 20:26:21;;;;;;;0.30;0.30;;;;;;;;;;7426626;19;20195;-93
2023/03/24 20:28:48;;;;;;;0.30;0.30;;;;;;;;;;7427676;19;20204;-93
2023/03/24 20:31:15;;;;;;;0.30;0.30;;;;;;;;;;7425467;19;20175;-92
2023/03/24 20:33:41;;;;;;;0.30;0.30;;;;;;;;;;7425297;19;20624;-93
2023/03/24 20:36:08;;;;;;;0.30;0.30;;;;;;;;;;7427052;19;20125;-94
2023/03/24 20:38:35;;;;;;;0.30;0.30;;;;;;;;;;7425693;19;20149;-94
2023/03/24 20:41:04;;;;;;;0.40;0.40;;;;;;;;;;7422499;19;20128;-95
2023/03/24 20:43:35;;;;;;;0.23;0.23;;;;;;;;;;7422472;19;20141;-94
2023/03/24 20:46:04;;;;;;;0.30;0.30;;;;;;;;;;7425934;19;20188;-94
2023/03/24 20:48:30;;;;;;;0.20;0.20;;;;;;;;;;7426000;19;20170;-93
2023/03/24 20:50:57;;;;;;;0.30;0.30;;;;;;;;;;7422441;19;20171;-94
2023/03/24 20:53:27;;;;;;;0.30;0.30;;;;;;;;;;7427599;19;20137;-93
2023/03/24 20:55:59;;;;;;;0.20;0.20;;;;;;;;;;7425051;19;20160;-93
2023/03/24 20:58:27;;;;;;;2.83;0.60;;;;;;;;;;7427571;19;20193;-94
2023/03/24 21:00:53;;;;;;;0.50;0.50;;;;;;;;;;7423114;19;20187;-94
2023/03/24 21:03:20;;;;;;;0.30;0.30;;;;;;;;;;7424018;19;20141;-93
2023/03/24 21:05:47;;;;;;;0.33;0.33;;;;;;;;;;7426568;19;20128;-93
2023/03/24 21:08:15;;;;;;;0.50;0.50;;;;;;;;;;7422130;19;20157;-93
2023/03/24 21:10:42;;;;;;;0.30;0.30;;;;;;;;;;7426905;19;20132;-93
2023/03/24 21:13:09;;;;;;;0.30;0.30;;;;;;;;;;7429324;19;20118;-93
2023/03/24 21:15:42;;;;;;;1.00;0.93;;;;;;;;;;7429736;19;20142;-93
2023/03/24 21:18:09;;;;;;;0.30;0.30;;;;;;;;;;7424925;19;20145;-94
2023/03/24 21:20:36;;;;;;;0.30;0.30;;;;;;;;;;7427000;19;20132;-95
2023/03/24 21:23:03;;;;;;;0.30;0.30;;;;;;;;;;7426163;19;20133;-94
2023/03/24 21:25:31;;;;;;;0.30;0.30;;;;;;;;;;7425198;19;20133;-94
2023/03/24 21:27:58;;;;;;;0.20;0.20;;;;;;;;;;7424821;19;20173;-94
2023/03/24 21:30:25;;;;;;;0.20;0.20;;;;;;;;;;7425588;19;20137;-94
2023/03/24 21:32:53;;;;;;;0.30;0.30;;;;;;;;;;7424726;19;20144;-94
2023/03/24 21:35:21;;;;;;;0.40;0.40;;;;;;;;;;7428742;19;20140;-95
2023/03/24 21:37:48;;;;;;;0.30;0.30;;;;;;;;;;7426855;19;20426;-95
2023/03/24 21:40:17;;;;;;;0.30;0.30;;;;;;;;;;7424917;19;20161;-93
2023/03/24 21:42:45;;;;;;;0.50;0.50;;;;;;;;;;7425329;19;20129;-94
2023/03/24 21:45:14;;;;;;;0.30;0.30;;;;;;;;;;7424869;19;20162;-93
2023/03/24 21:47:41;;;;;;;0.30;0.30;;;;;;;;;;7423985;19;20129;-93
2023/03/24 21:50:10;;;;;;;0.30;0.30;;;;;;;;;;7424866;19;20462;-94
2023/03/24 21:52:40;;;;;;;0.47;0.47;;;;;;;;;;7424601;19;20159;-94
2023/03/24 21:55:09;;;;;;;0.30;0.30;;;;;;;;;;7424826;19;20169;-94
2023/03/24 21:57:35;;;;;;;0.30;0.30;;;;;;;;;;7427450;19;20164;-93
2023/03/24 22:00:09;;;;;;;0.30;0.30;;;;;;;;;;7423752;19;20141;-92
2023/03/24 22:02:37;;;;;;;0.30;0.30;;;;;;;;;;7425332;19;20137;-93
2023/03/24 22:05:04;;;;;;;0.30;0.30;;;;;;;;;;7428247;19;20137;-93
2023/03/24 22:07:36;;;;;;;0.67;0.67;;;;;;;;;;7428082;19;20157;-92
2023/03/24 22:10:04;;;;;;;0.30;0.30;;;;;;;;;;7425191;19;20223;-93
2023/03/24 22:12:31;;;;;;;0.77;0.70;;;;;;;;;;7425976;19;20129;-94
2023/03/24 22:14:58;;;;;;;0.33;0.33;;;;;;;;;;7433708;19;20133;-94
2023/03/24 22:17:25;;;;;;;0.30;0.30;;;;;;;;;;7435121;19;20161;-94
2023/03/24 22:19:51;;;;;;;0.20;0.20;;;;;;;;;;7428849;19;20152;-94
2023/03/24 22:22:18;;;;;;;0.40;0.40;;;;;;;;;;7434685;19;20137;-93
2023/03/24 22:24:45;;;;;;;0.50;0.47;;;;;;;;;;7431738;19;20165;-94
2023/03/24 22:27:11;;;;;;;0.30;0.30;;;;;;;;;;7431114;19;20141;-93
2023/03/24 22:29:39;;;;;;;0.30;0.30;;;;;;;;;;7431042;19;20197;-95
2023/03/24 22:32:06;;;;;;;0.20;0.20;;;;;;;;;;7432545;19;20150;-94
2023/03/24 22:34:32;;;;;;;0.50;0.50;;;;;;;;;;7434540;19;20137;-94
2023/03/24 22:36:59;;;;;;;0.27;0.27;;;;;;;;;;7432823;19;20137;-94
2023/03/24 22:39:26;;;;;;;0.30;0.30;;;;;;;;;;7428339;19;20157;-95
2023/03/24 22:41:52;;;;;;;0.30;0.30;;;;;;;;;;7423719;19;20129;-94
2023/03/24 22:44:19;;;;;;;0.20;0.20;;;;;;;;;;7432258;19;20157;-95
2023/03/24 22:46:46;;;;;;;0.30;0.30;;;;;;;;;;7430023;19;20160;-94
2023/03/24 22:49:13;;;;;;;0.40;0.40;;;;;;;;;;7427870;19;20255;-94
2023/03/24 22:51:40;;;;;;;0.30;0.30;;;;;;;;;;7429687;19;20153;-94
2023/03/24 22:54:07;;;;;;;0.30;0.30;;;;;;;;;;7429064;19;20137;-94
2023/03/24 22:56:33;;;;;;;0.20;0.20;;;;;;;;;;7429548;19;20169;-94
2023/03/24 22:59:00;;;;;;;0.30;0.30;;;;;;;;;;7425600;19;20187;-96
2023/03/24 23:01:27;;;;;;;0.30;0.30;;;;;;;;;;7429752;19;20129;-94
2023/03/24 23:03:53;;;;;;;0.40;0.40;;;;;;;;;;7433934;19;20153;-94
2023/03/24 23:06:20;;;;;;;0.30;0.30;;;;;;;;;;7430102;19;20145;-94
2023/03/24 23:08:49;;;;;;;1.60;0.70;;;;;;;;;;7428955;19;20160;-92
2023/03/24 23:11:15;;;;;;;0.30;0.30;;;;;;;;;;7429967;19;20140;-95
2023/03/24 23:13:42;;;;;;;0.77;0.60;;;;;;;;;;7428801;19;20133;-94
2023/03/24 23:16:09;;;;;;;0.30;0.30;;;;;;;;;;7424105;19;20132;-95
2023/03/24 23:18:36;;;;;;;0.30;0.30;;;;;;;;;;7431211;19;20173;-94
2023/03/24 23:21:09;;;;;;;0.30;0.30;;;;;;;;;;7429627;19;20146;-94
2023/03/24 23:23:37;;;;;;;0.23;0.23;;;;;;;;;;7431197;19;20415;-93
2023/03/24 23:26:04;;;;;;;0.30;0.30;;;;;;;;;;7428166;19;20129;-94
2023/03/24 23:28:33;;;;;;;0.20;0.20;;;;;;;;;;7433025;19;20149;-94
2023/03/24 23:31:00;;;;;;;0.27;0.27;;;;;;;;;;7432919;19;20141;-94
2023/03/24 23:33:27;;;;;;;0.30;0.30;;;;;;;;;;7426172;19;20144;-94
2023/03/24 23:35:57;;;;;;;0.40;0.40;;;;;;;;;;7428792;19;21106;-94
2023/03/24 23:38:24;;;;;;;0.30;0.30;;;;;;;;;;7429882;19;20161;-94
2023/03/24 23:40:50;;;;;;;0.30;0.30;;;;;;;;;;7426660;19;20133;-95
2023/03/24 23:43:17;;;;;;;0.27;0.27;;;;;;;;;;7428935;19;20150;-94
2023/03/24 23:45:44;;;;;;;0.30;0.30;;;;;;;;;;7426723;19;20133;-93
2023/03/24 23:48:11;;;;;;;0.20;0.20;;;;;;;;;;7428171;19;20263;-95
2023/03/24 23:50:37;;;;;;;0.30;0.30;;;;;;;;;;7428689;19;20125;-95
2023/03/24 23:53:04;;;;;;;0.30;0.30;;;;;;;;;;7426167;19;20149;-94
2023/03/24 23:55:31;;;;;;;0.37;0.37;;;;;;;;;;7428169;19;20121;-95
2023/03/24 23:57:58;;;;;;;0.33;0.33;;;;;;;;;;7431701;19;20125;-94
